createdAt,value
2019-04-21T00:02:01.312Z,15.60
2019-04-21T00:04:43.255Z,15.70
2019-04-21T00:07:19.372Z,15.50
2019-04-21T00:12:22.046Z,15.50
2019-04-21T00:14:47.180Z,15.60
2019-04-21T00:17:11.478Z,15.50
2019-04-21T00:19:42.963Z,15.50
2019-04-21T00:22:24.732Z,15.30
2019-04-21T00:24:58.563Z,15.20
2019-04-21T00:27:33.784Z,14.90
2019-04-21T00:30:10.703Z,14.90
2019-04-21T00:32:31.390Z,14.90
2019-04-21T00:34:56.240Z,14.90
2019-04-21T00:37:42.580Z,14.80
2019-04-21T00:40:31.863Z,14.80
2019-04-21T00:42:47.097Z,14.70
2019-04-21T00:45:10.350Z,14.70
2019-04-21T00:47:41.027Z,14.60
2019-04-21T00:50:17.896Z,14.50
2019-04-21T00:52:58.181Z,14.50
2019-04-21T00:58:00.401Z,14.30
2019-04-21T01:00:30.973Z,14.20
2019-04-21T01:03:04.900Z,14.20
2019-04-21T01:05:41.081Z,14.20
2019-04-21T01:08:01.075Z,14.20
2019-04-21T01:10:24.183Z,13.90
2019-04-21T01:13:14.285Z,13.90
2019-04-21T01:15:43.557Z,14.00
2019-04-21T01:18:09.014Z,13.90
2019-04-21T01:20:21.571Z,14.00
2019-04-21T01:22:51.571Z,13.90
2019-04-21T01:25:30.312Z,14.00
2019-04-21T01:28:10.059Z,13.90
2019-04-21T01:30:45.135Z,13.90
2019-04-21T01:33:16.930Z,13.70
2019-04-21T01:35:48.481Z,13.70
2019-04-21T01:38:22.651Z,13.60
2019-04-21T01:40:56.761Z,13.50
2019-04-21T01:43:20.524Z,13.40
2019-04-21T01:45:50.526Z,13.40
2019-04-21T01:48:21.815Z,13.40
2019-04-21T01:50:51.077Z,13.30
2019-04-21T01:53:30.701Z,13.20
2019-04-21T01:56:00.542Z,13.20
2019-04-21T01:58:29.419Z,13.20
2019-04-21T02:01:08.742Z,13.30
2019-04-21T02:06:19.484Z,13.30
2019-04-21T02:08:46.445Z,13.20
2019-04-21T02:11:26.427Z,13.30
2019-04-21T02:13:59.191Z,13.10
2019-04-21T02:16:23.841Z,13.10
2019-04-21T02:18:52.963Z,13.00
2019-04-21T02:21:17.802Z,12.90
2019-04-21T02:24:01.901Z,12.90
2019-04-21T02:26:27.185Z,12.80
2019-04-21T02:29:01.836Z,12.70
2019-04-21T02:31:36.119Z,12.60
2019-04-21T02:36:52.985Z,12.70
2019-04-21T02:39:16.655Z,12.70
2019-04-21T02:46:42.545Z,12.50
2019-04-21T02:49:22.729Z,12.40
2019-04-21T02:51:52.828Z,12.50
2019-04-21T02:54:48.106Z,12.50
2019-04-21T02:57:01.354Z,12.50
2019-04-21T02:59:22.820Z,12.50
2019-04-21T03:02:17.212Z,12.40
2019-04-21T03:04:53.105Z,12.50
2019-04-21T03:12:17.945Z,12.40
2019-04-21T03:15:04.284Z,12.30
2019-04-21T03:17:32.454Z,12.20
2019-04-21T03:22:25.087Z,12.20
2019-04-21T03:25:22.795Z,12.10
2019-04-21T03:30:10.332Z,12.10
2019-04-21T03:37:37.167Z,11.90
2019-04-21T03:40:06.827Z,11.90
2019-04-21T03:42:38.976Z,11.70
2019-04-21T03:45:20.381Z,11.70
2019-04-21T03:47:36.539Z,11.50
2019-04-21T03:50:27.826Z,11.60
2019-04-21T03:52:45.755Z,11.60
2019-04-21T03:58:19.572Z,11.60
2019-04-21T04:00:49.831Z,11.60
2019-04-21T04:06:03.659Z,11.50
2019-04-21T04:08:51.569Z,11.40
2019-04-21T04:11:24.276Z,11.30
2019-04-21T04:13:55.808Z,11.40
2019-04-21T04:16:28.810Z,11.50
2019-04-21T04:21:20.678Z,11.40
2019-04-21T04:26:29.068Z,11.20
2019-04-21T04:29:01.304Z,11.10
2019-04-21T04:33:59.951Z,11.00
2019-04-21T04:36:38.831Z,10.90
2019-04-21T04:39:26.020Z,10.90
2019-04-21T04:42:08.022Z,10.90
2019-04-21T04:44:26.480Z,10.90
2019-04-21T04:47:04.652Z,10.90
2019-04-21T04:49:39.627Z,11.00
2019-04-21T04:52:10.051Z,11.00
2019-04-21T04:54:40.099Z,10.80
2019-04-21T05:04:36.898Z,10.60
2019-04-21T05:07:11.820Z,10.60
2019-04-21T05:09:37.100Z,10.90
2019-04-21T05:12:01.953Z,10.90
2019-04-21T05:14:30.489Z,10.80
2019-04-21T05:17:02.270Z,10.80
2019-04-21T05:19:30.557Z,10.90
2019-04-21T05:22:11.053Z,11.00
2019-04-21T05:24:28.699Z,11.00
2019-04-21T05:27:00.796Z,11.00
2019-04-21T05:29:29.668Z,11.10
2019-04-21T05:32:13.368Z,11.00
2019-04-21T05:34:38.966Z,11.10
2019-04-21T05:37:25.649Z,11.20
2019-04-21T05:39:52.263Z,11.30
2019-04-21T05:42:23.870Z,11.30
2019-04-21T05:45:26.980Z,11.20
2019-04-21T05:47:39.833Z,11.20
2019-04-21T05:50:01.221Z,11.30
2019-04-21T05:52:34.032Z,11.40
2019-04-21T05:55:09.578Z,11.50
2019-04-21T05:57:43.134Z,11.40
2019-04-21T06:00:12.451Z,11.40
2019-04-21T06:02:43.443Z,11.50
2019-04-21T06:05:20.609Z,11.70
2019-04-21T06:07:46.186Z,11.80
2019-04-21T06:10:16.916Z,11.90
2019-04-21T06:12:51.709Z,11.90
2019-04-21T06:15:19.671Z,11.90
2019-04-21T06:17:50.554Z,12.00
2019-04-21T06:20:21.305Z,12.10
2019-04-21T06:23:00.962Z,12.10
2019-04-21T06:28:01.810Z,12.20
2019-04-21T06:30:33.455Z,12.30
2019-04-21T06:33:08.157Z,12.40
2019-04-21T06:36:07.329Z,12.40
2019-04-21T06:38:26.559Z,12.50
2019-04-21T06:40:50.186Z,12.60
2019-04-21T06:46:12.514Z,12.70
2019-04-21T06:48:26.184Z,12.80
2019-04-21T06:50:55.477Z,12.90
2019-04-21T06:53:29.252Z,13.00
2019-04-21T06:55:52.439Z,13.10
2019-04-21T06:58:27.119Z,13.20
2019-04-21T07:00:53.566Z,13.30
2019-04-21T07:03:34.814Z,13.50
2019-04-21T07:06:10.450Z,13.60
2019-04-21T07:08:36.935Z,13.60
2019-04-21T07:11:04.332Z,13.70
2019-04-21T07:13:34.782Z,13.80
2019-04-21T07:16:10.745Z,13.90
2019-04-21T07:18:47.464Z,14.00
2019-04-21T07:21:08.164Z,14.10
2019-04-21T07:23:45.959Z,14.20
2019-04-21T07:26:10.548Z,14.30
2019-04-21T07:28:47.931Z,14.40
2019-04-21T07:31:23.203Z,14.50
2019-04-21T07:33:54.184Z,14.60
2019-04-21T07:36:21.863Z,14.70
2019-04-21T07:38:41.105Z,14.80
2019-04-21T07:41:09.919Z,14.90
2019-04-21T07:43:44.351Z,15.00
2019-04-21T07:46:10.689Z,15.10
2019-04-21T07:48:56.728Z,15.30
2019-04-21T07:51:38.770Z,15.40
2019-04-21T07:54:17.206Z,15.50
2019-04-21T07:56:28.293Z,15.80
2019-04-21T07:59:18.160Z,15.90
2019-04-21T08:01:44.133Z,16.10
2019-04-21T08:04:38.252Z,16.20
2019-04-21T08:06:46.535Z,16.30
2019-04-21T08:09:24.609Z,16.40
2019-04-21T08:11:50.072Z,16.50
2019-04-21T08:14:25.433Z,16.60
2019-04-21T08:17:00.045Z,16.80
2019-04-21T08:19:25.212Z,16.90
2019-04-21T08:21:57.628Z,16.90
2019-04-21T08:24:28.532Z,17.00
2019-04-21T08:27:00.128Z,17.10
2019-04-21T08:29:35.009Z,17.10
2019-04-21T08:32:17.277Z,17.10
2019-04-21T08:34:35.827Z,17.10
2019-04-21T08:37:00.246Z,17.30
2019-04-21T08:39:42.385Z,17.40
2019-04-21T08:42:05.943Z,17.60
2019-04-21T08:47:09.660Z,17.70
2019-04-21T08:49:37.725Z,17.80
2019-04-21T08:52:09.795Z,17.80
2019-04-21T08:54:40.910Z,18.00
2019-04-21T08:57:24.316Z,18.10
2019-04-21T09:00:01.409Z,18.10
2019-04-21T09:02:29.801Z,18.10
2019-04-21T09:05:03.424Z,18.20
2019-04-21T09:07:34.398Z,18.30
2019-04-21T09:10:01.148Z,18.30
2019-04-21T09:12:33.152Z,18.40
2019-04-21T09:15:00.837Z,18.50
2019-04-21T09:17:28.450Z,18.50
2019-04-21T09:20:13.853Z,18.60
2019-04-21T09:22:35.748Z,18.70
2019-04-21T09:25:04.400Z,18.80
2019-04-21T09:27:36.791Z,18.90
2019-04-21T09:29:55.982Z,18.90
2019-04-21T09:32:26.804Z,19.10
2019-04-21T09:34:53.160Z,19.10
2019-04-21T09:37:34.034Z,19.20
2019-04-21T09:39:55.920Z,19.30
2019-04-21T09:42:32.278Z,19.40
2019-04-21T09:45:00.662Z,19.60
2019-04-21T09:47:38.292Z,19.60
2019-04-21T09:50:01.867Z,19.70
2019-04-21T09:52:39.645Z,19.70
2019-04-21T09:55:09.978Z,19.80
2019-04-21T09:57:41.664Z,19.90
2019-04-21T10:00:14.234Z,20.00
2019-04-21T10:02:47.075Z,20.00
2019-04-21T10:05:10.746Z,20.20
2019-04-21T10:07:42.251Z,20.30
2019-04-21T10:10:12.805Z,20.30
2019-04-21T10:12:43.391Z,20.40
2019-04-21T10:15:14.220Z,20.30
2019-04-21T10:17:47.853Z,20.40
2019-04-21T10:20:17.792Z,20.60
2019-04-21T10:22:47.135Z,20.70
2019-04-21T10:25:16.926Z,20.90
2019-04-21T10:27:47.271Z,20.90
2019-04-21T10:30:18.231Z,20.90
2019-04-21T10:32:48.402Z,20.80
2019-04-21T10:35:21.042Z,21.00
2019-04-21T10:38:01.764Z,21.00
2019-04-21T10:40:21.245Z,21.00
2019-04-21T10:42:51.929Z,21.10
2019-04-21T10:45:21.563Z,21.10
2019-04-21T10:47:50.923Z,21.30
2019-04-21T10:50:20.479Z,21.40
2019-04-21T10:53:00.956Z,21.40
2019-04-21T10:55:49.215Z,21.40
2019-04-21T10:58:08.685Z,21.50
2019-04-21T11:00:46.160Z,21.40
2019-04-21T11:03:26.858Z,21.50
2019-04-21T11:05:58.917Z,21.70
2019-04-21T11:08:34.191Z,21.90
2019-04-21T11:10:59.786Z,21.80
2019-04-21T11:13:30.733Z,21.70
2019-04-21T11:16:01.338Z,21.60
2019-04-21T11:18:31.703Z,21.70
2019-04-21T11:21:04.961Z,22.00
2019-04-21T11:23:35.377Z,22.10
2019-04-21T11:26:06.458Z,22.00
2019-04-21T11:28:36.814Z,22.10
2019-04-21T11:31:07.066Z,22.30
2019-04-21T11:33:37.592Z,22.40
2019-04-21T11:36:08.979Z,22.60
2019-04-21T11:39:08.377Z,22.80
2019-04-21T11:41:27.776Z,22.90
2019-04-21T11:43:57.317Z,23.20
2019-04-21T11:46:26.922Z,23.20
2019-04-21T11:48:57.915Z,23.20
2019-04-21T11:51:27.344Z,23.00
2019-04-21T11:53:56.975Z,23.10
2019-04-21T11:56:27.236Z,23.40
2019-04-21T11:58:57.786Z,23.40
2019-04-21T12:01:27.621Z,23.60
2019-04-21T12:03:57.969Z,23.70
2019-04-21T12:06:32.201Z,24.10
2019-04-21T12:09:01.246Z,24.20
2019-04-21T12:11:31.464Z,24.40
2019-04-21T12:14:03.765Z,24.40
2019-04-21T12:16:33.350Z,24.40
2019-04-21T12:19:03.037Z,24.30
2019-04-21T12:21:47.915Z,24.30
2019-04-21T12:24:04.164Z,24.60
2019-04-21T12:26:33.911Z,24.90
2019-04-21T12:29:03.900Z,24.90
2019-04-21T12:31:35.855Z,25.10
2019-04-21T12:34:07.905Z,25.30
2019-04-21T12:36:38.041Z,25.30
2019-04-21T12:39:10.721Z,25.40
2019-04-21T12:41:40.554Z,25.60
2019-04-21T12:44:10.821Z,25.70
2019-04-21T12:46:40.344Z,25.80
2019-04-21T12:49:09.909Z,25.90
2019-04-21T12:51:39.812Z,25.80
2019-04-21T12:54:09.865Z,25.80
2019-04-21T12:56:39.403Z,25.80
2019-04-21T12:59:09.929Z,25.90
2019-04-21T13:01:41.058Z,25.90
2019-04-21T13:04:10.745Z,25.90
2019-04-21T13:06:41.419Z,25.90
2019-04-21T13:09:14.299Z,26.20
2019-04-21T13:11:43.403Z,26.30
2019-04-21T13:14:13.673Z,26.50
2019-04-21T13:16:43.415Z,26.60
2019-04-21T13:19:13.413Z,26.40
2019-04-21T13:21:42.864Z,26.40
2019-04-21T13:24:13.599Z,26.50
2019-04-21T13:26:49.148Z,26.50
2019-04-21T13:29:14.581Z,26.70
2019-04-21T13:31:44.495Z,26.70
2019-04-21T13:34:31.937Z,26.60
2019-04-21T13:37:01.612Z,26.90
2019-04-21T13:40:09.983Z,27.00
2019-04-21T13:42:26.771Z,27.10
2019-04-21T13:44:52.716Z,27.40
2019-04-21T13:47:24.825Z,27.60
2019-04-21T13:49:56.449Z,27.70
2019-04-21T13:52:26.858Z,27.80
2019-04-21T13:54:57.828Z,27.80
2019-04-21T13:57:28.515Z,27.90
2019-04-21T13:59:59.289Z,27.80
2019-04-21T14:02:29.049Z,27.90
2019-04-21T14:04:59.178Z,28.00
2019-04-21T14:07:30.187Z,27.90
2019-04-21T14:10:04.775Z,28.10
2019-04-21T14:12:31.631Z,28.00
2019-04-21T14:15:02.315Z,28.00
2019-04-21T14:17:32.816Z,28.00
2019-04-21T14:20:03.425Z,28.40
2019-04-21T14:22:33.983Z,28.80
2019-04-21T14:25:05.917Z,28.60
2019-04-21T14:27:36.343Z,28.50
2019-04-21T14:30:12.060Z,28.50
2019-04-21T14:32:42.079Z,28.70
2019-04-21T14:35:12.519Z,28.70
2019-04-21T14:37:42.535Z,28.70
2019-04-21T14:40:17.286Z,29.10
2019-04-21T14:42:44.436Z,29.30
2019-04-21T14:45:25.392Z,29.70
2019-04-21T14:48:05.144Z,29.80
2019-04-21T14:50:52.510Z,30.10
2019-04-21T14:53:27.628Z,30.30
2019-04-21T14:55:57.573Z,30.10
2019-04-21T14:58:27.418Z,30.20
2019-04-21T15:01:02.005Z,29.90
2019-04-21T15:03:32.192Z,30.00
2019-04-21T15:06:01.454Z,30.30
2019-04-21T15:08:31.288Z,29.80
2019-04-21T15:11:01.074Z,30.10
2019-04-21T15:13:32.194Z,29.70
2019-04-21T15:16:02.735Z,30.20
2019-04-21T15:18:32.763Z,30.40
2019-04-21T15:21:03.624Z,31.10
2019-04-21T15:23:33.961Z,31.60
2019-04-21T15:26:04.154Z,31.40
2019-04-21T15:28:35.740Z,31.20
2019-04-21T15:31:05.018Z,31.10
2019-04-21T15:33:34.951Z,30.50
2019-04-21T15:36:05.113Z,30.80
2019-04-21T15:38:35.876Z,31.00
2019-04-21T15:41:08.938Z,30.50
2019-04-21T15:43:36.823Z,30.70
2019-04-21T15:46:06.844Z,30.80
2019-04-21T15:48:37.033Z,30.50
2019-04-21T15:51:08.524Z,30.70
2019-04-21T15:53:42.146Z,30.10
2019-04-21T15:56:13.135Z,30.50
2019-04-21T15:58:58.969Z,30.70
2019-04-21T16:01:30.410Z,30.70
2019-04-21T16:04:00.979Z,30.60
2019-04-21T16:06:31.952Z,30.60
2019-04-21T16:09:03.273Z,30.60
2019-04-21T16:11:33.666Z,30.20
2019-04-21T16:14:03.760Z,30.00
2019-04-21T16:16:34.591Z,30.30
2019-04-21T16:19:04.326Z,30.50
2019-04-21T16:21:38.342Z,30.30
2019-04-21T16:24:06.632Z,30.30
2019-04-21T16:26:36.482Z,30.40
2019-04-21T16:29:07.018Z,30.30
2019-04-21T16:31:36.464Z,30.30
2019-04-21T16:34:07.151Z,30.20
2019-04-21T16:36:37.899Z,29.80
2019-04-21T16:39:09.416Z,29.90
2019-04-21T16:41:40.266Z,29.80
2019-04-21T16:44:11.178Z,29.60
2019-04-21T16:46:41.290Z,29.40
2019-04-21T16:49:11.821Z,29.20
2019-04-21T16:51:42.280Z,29.20
2019-04-21T16:54:16.072Z,28.90
2019-04-21T16:56:54.010Z,28.90
2019-04-21T16:59:26.422Z,29.20
2019-04-21T17:01:56.564Z,29.30
2019-04-21T17:04:26.495Z,29.20
2019-04-21T17:06:56.100Z,29.00
2019-04-21T17:09:26.532Z,28.70
2019-04-21T17:11:59.850Z,28.60
2019-04-21T17:14:45.063Z,28.40
2019-04-21T17:17:17.933Z,28.50
2019-04-21T17:19:33.800Z,28.60
2019-04-21T17:22:01.738Z,28.10
2019-04-21T17:24:32.559Z,27.90
2019-04-21T17:27:02.910Z,27.80
2019-04-21T17:33:33.755Z,27.50
2019-04-21T17:36:03.159Z,27.40
2019-04-21T17:39:45.160Z,27.40
2019-04-21T17:42:26.492Z,27.10
2019-04-21T17:44:48.978Z,26.90
2019-04-21T17:47:32.592Z,26.90
2019-04-21T17:50:11.999Z,26.90
2019-04-21T17:52:50.481Z,26.80
2019-04-21T17:55:27.524Z,26.60
2019-04-21T17:58:09.697Z,26.50
2019-04-21T18:01:20.999Z,26.30
2019-04-21T18:06:01.802Z,25.40
2019-04-21T18:08:38.552Z,25.00
2019-04-21T18:11:00.287Z,24.70
2019-04-21T18:13:22.998Z,24.50
2019-04-21T18:16:01.511Z,24.50
2019-04-21T18:18:23.113Z,24.30
2019-04-21T18:21:09.542Z,24.10
2019-04-21T18:23:52.076Z,24.10
2019-04-21T18:26:24.676Z,24.00
2019-04-21T18:28:42.649Z,23.90
2019-04-21T18:31:14.629Z,23.80
2019-04-21T18:33:46.201Z,23.70
2019-04-21T18:36:34.085Z,23.60
2019-04-21T18:39:30.219Z,23.50
2019-04-21T18:42:15.350Z,23.40
2019-04-21T18:44:53.461Z,23.30
2019-04-21T18:47:31.989Z,23.20
2019-04-21T18:49:44.319Z,23.10
2019-04-21T18:52:22.420Z,22.90
2019-04-21T18:55:01.581Z,22.80
2019-04-21T18:57:27.366Z,22.60
2019-04-21T18:59:53.105Z,22.60
2019-04-21T19:02:24.451Z,22.60
2019-04-21T19:04:59.757Z,22.40
2019-04-21T19:07:45.534Z,22.40
2019-04-21T19:13:09.222Z,22.20
2019-04-21T19:15:15.876Z,22.10
2019-04-21T19:18:25.391Z,21.90
2019-04-21T19:20:22.288Z,21.90
2019-04-21T19:22:47.246Z,21.80
2019-04-21T19:25:24.005Z,21.80
2019-04-21T19:27:49.186Z,21.80
2019-04-21T19:32:58.084Z,21.60
2019-04-21T19:35:11.627Z,21.40
2019-04-21T19:37:49.774Z,21.30
2019-04-21T19:40:31.606Z,21.20
2019-04-21T19:42:55.753Z,21.00
2019-04-21T19:45:32.760Z,20.90
2019-04-21T19:48:05.534Z,20.70
2019-04-21T19:50:41.173Z,20.70
2019-04-21T19:53:01.194Z,20.50
2019-04-21T19:55:22.194Z,20.30
2019-04-21T19:57:52.696Z,20.00
2019-04-21T20:00:24.408Z,19.90
2019-04-21T20:02:54.530Z,19.70
2019-04-21T20:05:32.730Z,19.60
2019-04-21T20:08:11.445Z,19.40
2019-04-21T20:10:44.493Z,19.40
2019-04-21T20:13:27.507Z,19.40
2019-04-21T20:15:45.967Z,19.20
2019-04-21T20:18:11.275Z,19.20
2019-04-21T20:20:31.063Z,19.10
2019-04-21T20:23:01.302Z,19.10
2019-04-21T20:25:41.808Z,19.00
2019-04-21T20:28:09.545Z,18.80
2019-04-21T20:30:52.716Z,18.60
2019-04-21T20:33:42.802Z,18.60
2019-04-21T20:36:12.336Z,18.60
2019-04-21T20:40:45.769Z,18.40
2019-04-21T20:43:25.055Z,18.30
2019-04-21T20:45:59.337Z,18.00
2019-04-21T20:48:21.000Z,17.90
2019-04-21T20:51:01.915Z,18.00
2019-04-21T20:53:32.825Z,17.80
2019-04-21T20:55:57.657Z,17.60
2019-04-21T20:58:28.422Z,17.60
2019-04-21T21:01:21.956Z,17.70
2019-04-21T21:03:39.448Z,17.90
2019-04-21T21:06:08.120Z,17.70
2019-04-21T21:08:39.913Z,17.60
2019-04-21T21:11:07.930Z,17.30
2019-04-21T21:13:42.846Z,17.20
2019-04-21T21:16:35.859Z,17.40
2019-04-21T21:21:22.992Z,17.60
2019-04-21T21:23:52.743Z,17.40
2019-04-21T21:26:26.869Z,17.10
2019-04-21T21:28:49.828Z,17.00
2019-04-21T21:31:24.607Z,17.00
2019-04-21T21:36:27.437Z,16.90
2019-04-21T21:39:03.119Z,17.00
2019-04-21T21:41:18.962Z,17.10
2019-04-21T21:43:45.192Z,16.90
2019-04-21T21:46:31.182Z,16.80
2019-04-21T21:48:59.002Z,16.50
2019-04-21T21:51:29.040Z,16.40
2019-04-21T21:53:48.451Z,16.50
2019-04-21T21:56:18.576Z,16.40
2019-04-21T21:58:49.453Z,16.60
2019-04-21T22:01:21.662Z,16.60
2019-04-21T22:04:01.728Z,16.70
2019-04-21T22:06:23.950Z,16.70
2019-04-21T22:08:54.482Z,16.60
2019-04-21T22:11:24.215Z,16.50
2019-04-21T22:14:02.441Z,16.40
2019-04-21T22:16:41.144Z,16.30
2019-04-21T22:19:14.257Z,16.40
2019-04-21T22:21:47.749Z,16.30
2019-04-21T22:24:05.425Z,16.20
2019-04-21T22:26:29.349Z,15.80
2019-04-21T22:28:59.037Z,15.70
2019-04-21T22:31:32.205Z,15.80
2019-04-21T22:34:05.442Z,15.80
2019-04-21T22:36:44.816Z,15.80
2019-04-21T22:39:20.831Z,15.90
2019-04-21T22:41:40.489Z,15.90
2019-04-21T22:44:04.891Z,15.70
2019-04-21T22:46:34.318Z,15.70
2019-04-21T22:49:08.929Z,15.60
2019-04-21T22:51:39.296Z,15.50
2019-04-21T22:54:06.210Z,15.40
2019-04-21T22:56:36.125Z,15.30
2019-04-21T22:59:10.998Z,15.40
2019-04-21T23:01:43.484Z,15.50
2019-04-21T23:04:10.682Z,15.40
2019-04-21T23:06:41.304Z,15.20
2019-04-21T23:09:12.889Z,15.20
2019-04-21T23:11:47.490Z,15.20
2019-04-21T23:14:16.783Z,15.20
2019-04-21T23:16:46.332Z,15.20
2019-04-21T23:19:31.385Z,15.20
2019-04-21T23:22:05.647Z,15.10
2019-04-21T23:24:39.927Z,15.00
2019-04-21T23:27:05.745Z,15.00
2019-04-21T23:29:48.224Z,14.90
2019-04-21T23:32:08.405Z,14.50
2019-04-21T23:34:28.337Z,14.20
2019-04-21T23:37:02.295Z,14.10
2019-04-21T23:39:28.939Z,14.10
2019-04-21T23:41:57.761Z,14.40
2019-04-21T23:44:28.178Z,14.40
2019-04-21T23:47:03.470Z,14.40
2019-04-21T23:49:40.579Z,14.50
2019-04-21T23:52:04.666Z,14.60
2019-04-21T23:54:31.456Z,14.40
2019-04-21T23:57:05.028Z,14.40
2019-04-21T23:59:38.595Z,14.30
